KJAQ

Westover Field Amador County Airport

Jackson, California, USA
METAR KJAQ 230835Z AUTO 00000KT 10SM OVC110 11/11 A2987 RMK AO1 T01130109
Observed Flight Rules
May-23 @ 08:35 UTC (19 minutes ago) Visual Flight Rules
Visibility Clouds
10 miles
  • Overcast at 11,000' AGL
Temperatures Readings
Current 11°C / 52°F
Dewpoint 11°C / 52°F
Humidity 100%
Altimeter 29.87" Hg
Pressure 1012 hPa
Elevation 512
METAR KJAQ 230835Z AUTO 00000KT 10SM OVC110 11/11 A2987 RMK AO1 T01130109
Observed Flight Rules
May-23 @ 08:35 UTC
(19 minutes ago)
VFR
Clouds
  • Overcast at 11,000' AGL
Temperature Dewpoint
11°C / 52°F 11°C / 52°F
Humidity Altimeter Pressure
100% 29.87" Hg 1012 hPa